sensor_id;sensor_type;location;lat;lon;timestamp;pressure;altitude;pressure_sealevel;temperature
13570;BMP180;6856;51.460;7.158;2022-11-03T00:00:30;100482.00;;;15.60
13570;BMP180;6856;51.460;7.158;2022-11-03T00:03:03;100476.00;;;15.60
13570;BMP180;6856;51.460;7.158;2022-11-03T00:05:37;100480.00;;;15.60
13570;BMP180;6856;51.460;7.158;2022-11-03T00:08:29;100486.00;;;15.60
13570;BMP180;6856;51.460;7.158;2022-11-03T00:11:08;100492.00;;;15.50
13570;BMP180;6856;51.460;7.158;2022-11-03T00:13:43;100487.00;;;15.60
13570;BMP180;6856;51.460;7.158;2022-11-03T00:16:19;100479.00;;;15.60
13570;BMP180;6856;51.460;7.158;2022-11-03T00:18:52;100478.00;;;15.60
13570;BMP180;6856;51.460;7.158;2022-11-03T00:21:28;100396.00;;;15.60
13570;BMP180;6856;51.460;7.158;2022-11-03T00:24:02;100450.00;;;15.60
13570;BMP180;6856;51.460;7.158;2022-11-03T00:26:37;100484.00;;;15.60
13570;BMP180;6856;51.460;7.158;2022-11-03T00:29:13;100450.00;;;15.60
13570;BMP180;6856;51.460;7.158;2022-11-03T00:31:48;100467.00;;;15.60
13570;BMP180;6856;51.460;7.158;2022-11-03T00:34:22;100471.00;;;15.60
13570;BMP180;6856;51.460;7.158;2022-11-03T00:36:55;100469.00;;;15.60
13570;BMP180;6856;51.460;7.158;2022-11-03T00:39:28;100466.00;;;15.60
13570;BMP180;6856;51.460;7.158;2022-11-03T00:42:02;100471.00;;;15.60
13570;BMP180;6856;51.460;7.158;2022-11-03T00:44:35;100462.00;;;15.60
13570;BMP180;6856;51.460;7.158;2022-11-03T00:47:10;100462.00;;;15.60
13570;BMP180;6856;51.460;7.158;2022-11-03T00:49:44;100454.00;;;15.60
13570;BMP180;6856;51.460;7.158;2022-11-03T00:52:17;100463.00;;;15.70
13570;BMP180;6856;51.460;7.158;2022-11-03T00:54:50;100438.00;;;15.60
13570;BMP180;6856;51.460;7.158;2022-11-03T00:57:26;100450.00;;;15.60
13570;BMP180;6856;51.460;7.158;2022-11-03T00:59:59;100458.00;;;15.70
13570;BMP180;6856;51.460;7.158;2022-11-03T01:02:34;100455.00;;;15.70
13570;BMP180;6856;51.460;7.158;2022-11-03T01:05:08;100441.00;;;15.70
13570;BMP180;6856;51.460;7.158;2022-11-03T01:07:59;100453.00;;;15.70
13570;BMP180;6856;51.460;7.158;2022-11-03T01:10:36;100445.00;;;15.70
13570;BMP180;6856;51.460;7.158;2022-11-03T01:13:30;100445.00;;;15.70
13570;BMP180;6856;51.460;7.158;2022-11-03T01:16:04;100443.00;;;15.70
13570;BMP180;6856;51.460;7.158;2022-11-03T01:18:39;100439.00;;;15.70
13570;BMP180;6856;51.460;7.158;2022-11-03T01:21:12;100438.00;;;15.70
13570;BMP180;6856;51.460;7.158;2022-11-03T01:23:46;100442.00;;;15.70
13570;BMP180;6856;51.460;7.158;2022-11-03T01:26:20;100440.00;;;15.70
13570;BMP180;6856;51.460;7.158;2022-11-03T01:28:53;100432.00;;;15.70
13570;BMP180;6856;51.460;7.158;2022-11-03T01:31:28;100434.00;;;15.70
13570;BMP180;6856;51.460;7.158;2022-11-03T01:34:02;100435.00;;;15.60
13570;BMP180;6856;51.460;7.158;2022-11-03T01:36:36;100427.00;;;15.70
13570;BMP180;6856;51.460;7.158;2022-11-03T01:39:10;100414.00;;;15.70
13570;BMP180;6856;51.460;7.158;2022-11-03T01:41:47;100410.00;;;15.70
13570;BMP180;6856;51.460;7.158;2022-11-03T01:44:31;100409.00;;;15.70
13570;BMP180;6856;51.460;7.158;2022-11-03T01:47:18;100401.00;;;15.70
13570;BMP180;6856;51.460;7.158;2022-11-03T01:49:58;100406.00;;;15.70
13570;BMP180;6856;51.460;7.158;2022-11-03T01:52:40;100411.00;;;15.70
13570;BMP180;6856;51.460;7.158;2022-11-03T01:55:20;100396.00;;;15.70
13570;BMP180;6856;51.460;7.158;2022-11-03T01:58:01;100375.00;;;15.60
13570;BMP180;6856;51.460;7.158;2022-11-03T02:00:47;100399.00;;;15.70
13570;BMP180;6856;51.460;7.158;2022-11-03T02:03:22;100357.00;;;15.70
13570;BMP180;6856;51.460;7.158;2022-11-03T02:05:58;100355.00;;;15.60
13570;BMP180;6856;51.460;7.158;2022-11-03T02:08:37;100376.00;;;15.60
13570;BMP180;6856;51.460;7.158;2022-11-03T02:11:12;100364.00;;;15.60
13570;BMP180;6856;51.460;7.158;2022-11-03T02:14:04;100368.00;;;15.60
13570;BMP180;6856;51.460;7.158;2022-11-03T02:16:39;100360.00;;;15.60
13570;BMP180;6856;51.460;7.158;2022-11-03T02:19:31;100357.00;;;15.60
13570;BMP180;6856;51.460;7.158;2022-11-03T02:22:25;100362.00;;;15.60
13570;BMP180;6856;51.460;7.158;2022-11-03T02:25:17;100355.00;;;15.60
13570;BMP180;6856;51.460;7.158;2022-11-03T02:27:52;100342.00;;;15.60
13570;BMP180;6856;51.460;7.158;2022-11-03T02:30:30;100340.00;;;15.60
13570;BMP180;6856;51.460;7.158;2022-11-03T02:33:19;100339.00;;;15.60
13570;BMP180;6856;51.460;7.158;2022-11-03T02:36:01;100336.00;;;15.60
13570;BMP180;6856;51.460;7.158;2022-11-03T02:38:43;100318.00;;;15.60
13570;BMP180;6856;51.460;7.158;2022-11-03T02:41:19;100312.00;;;15.60
13570;BMP180;6856;51.460;7.158;2022-11-03T02:43:57;100300.00;;;15.50
13570;BMP180;6856;51.460;7.158;2022-11-03T02:46:33;100299.00;;;15.50
13570;BMP180;6856;51.460;7.158;2022-11-03T02:49:07;100313.00;;;15.50
13570;BMP180;6856;51.460;7.158;2022-11-03T02:51:40;100299.00;;;15.50
13570;BMP180;6856;51.460;7.158;2022-11-03T02:54:20;100290.00;;;15.50
13570;BMP180;6856;51.460;7.158;2022-11-03T02:56:59;100276.00;;;15.50
13570;BMP180;6856;51.460;7.158;2022-11-03T02:59:42;100297.00;;;15.50
13570;BMP180;6856;51.460;7.158;2022-11-03T03:02:28;100288.00;;;15.50
13570;BMP180;6856;51.460;7.158;2022-11-03T03:05:10;100284.00;;;15.50
13570;BMP180;6856;51.460;7.158;2022-11-03T03:07:50;100251.00;;;15.50
13570;BMP180;6856;51.460;7.158;2022-11-03T03:10:28;100274.00;;;15.50
13570;BMP180;6856;51.460;7.158;2022-11-03T03:13:05;100258.00;;;15.50
13570;BMP180;6856;51.460;7.158;2022-11-03T03:15:47;100266.00;;;15.50
13570;BMP180;6856;51.460;7.158;2022-11-03T03:18:30;100258.00;;;15.50
13570;BMP180;6856;51.460;7.158;2022-11-03T03:21:15;100261.00;;;15.50
13570;BMP180;6856;51.460;7.158;2022-11-03T03:23:56;100261.00;;;15.50
13570;BMP180;6856;51.460;7.158;2022-11-03T03:26:35;100255.00;;;15.40
13570;BMP180;6856;51.460;7.158;2022-11-03T03:29:14;100263.00;;;15.50
13570;BMP180;6856;51.460;7.158;2022-11-03T03:31:54;100246.00;;;15.40
13570;BMP180;6856;51.460;7.158;2022-11-03T03:34:29;100247.00;;;15.50
13570;BMP180;6856;51.460;7.158;2022-11-03T03:37:10;100249.00;;;15.40
13570;BMP180;6856;51.460;7.158;2022-11-03T03:39:51;100239.00;;;15.50
13570;BMP180;6856;51.460;7.158;2022-11-03T03:42:29;100248.00;;;15.50
13570;BMP180;6856;51.460;7.158;2022-11-03T03:45:05;100236.00;;;15.50
13570;BMP180;6856;51.460;7.158;2022-11-03T03:47:42;100236.00;;;15.50
13570;BMP180;6856;51.460;7.158;2022-11-03T03:50:17;100243.00;;;15.50
13570;BMP180;6856;51.460;7.158;2022-11-03T03:52:54;100235.00;;;15.50
13570;BMP180;6856;51.460;7.158;2022-11-03T03:55:35;100230.00;;;15.50
13570;BMP180;6856;51.460;7.158;2022-11-03T03:58:12;100233.00;;;15.50
13570;BMP180;6856;51.460;7.158;2022-11-03T04:00:45;100219.00;;;15.50
13570;BMP180;6856;51.460;7.158;2022-11-03T04:03:23;100193.00;;;15.50
13570;BMP180;6856;51.460;7.158;2022-11-03T04:05:57;100212.00;;;15.60
13570;BMP180;6856;51.460;7.158;2022-11-03T04:08:30;100211.00;;;15.60
13570;BMP180;6856;51.460;7.158;2022-11-03T04:11:04;100213.00;;;15.60
13570;BMP180;6856;51.460;7.158;2022-11-03T04:13:55;100211.00;;;15.50
13570;BMP180;6856;51.460;7.158;2022-11-03T04:16:46;100207.00;;;15.50
13570;BMP180;6856;51.460;7.158;2022-11-03T04:19:38;100202.00;;;15.50
13570;BMP180;6856;51.460;7.158;2022-11-03T04:22:32;100209.00;;;15.50
13570;BMP180;6856;51.460;7.158;2022-11-03T04:25:06;100219.00;;;15.50
13570;BMP180;6856;51.460;7.158;2022-11-03T04:27:40;100198.00;;;15.50
13570;BMP180;6856;51.460;7.158;2022-11-03T04:30:16;100199.00;;;15.50
13570;BMP180;6856;51.460;7.158;2022-11-03T04:32:51;100190.00;;;15.60
13570;BMP180;6856;51.460;7.158;2022-11-03T04:35:27;100207.00;;;15.60
13570;BMP180;6856;51.460;7.158;2022-11-03T04:38:15;100176.00;;;15.60
13570;BMP180;6856;51.460;7.158;2022-11-03T04:40:54;100189.00;;;15.60
13570;BMP180;6856;51.460;7.158;2022-11-03T04:43:33;100190.00;;;15.60
13570;BMP180;6856;51.460;7.158;2022-11-03T04:46:10;100170.00;;;15.60
13570;BMP180;6856;51.460;7.158;2022-11-03T04:48:45;100161.00;;;15.60
13570;BMP180;6856;51.460;7.158;2022-11-03T04:51:25;100195.00;;;15.70
13570;BMP180;6856;51.460;7.158;2022-11-03T04:54:03;100190.00;;;15.70
13570;BMP180;6856;51.460;7.158;2022-11-03T04:56:39;100188.00;;;15.70
13570;BMP180;6856;51.460;7.158;2022-11-03T04:59:15;100186.00;;;15.70
13570;BMP180;6856;51.460;7.158;2022-11-03T05:01:48;100167.00;;;15.70
13570;BMP180;6856;51.460;7.158;2022-11-03T05:04:22;100163.00;;;15.70
13570;BMP180;6856;51.460;7.158;2022-11-03T05:06:57;100170.00;;;15.70
13570;BMP180;6856;51.460;7.158;2022-11-03T05:09:31;100171.00;;;15.80
13570;BMP180;6856;51.460;7.158;2022-11-03T05:12:08;100163.00;;;15.80
13570;BMP180;6856;51.460;7.158;2022-11-03T05:14:42;100169.00;;;15.80
13570;BMP180;6856;51.460;7.158;2022-11-03T05:17:22;100158.00;;;15.80
13570;BMP180;6856;51.460;7.158;2022-11-03T05:19:59;100147.00;;;15.80
13570;BMP180;6856;51.460;7.158;2022-11-03T05:22:36;100147.00;;;15.80
13570;BMP180;6856;51.460;7.158;2022-11-03T05:25:36;100152.00;;;15.80
13570;BMP180;6856;51.460;7.158;2022-11-03T05:28:19;100126.00;;;15.80
13570;BMP180;6856;51.460;7.158;2022-11-03T05:30:54;100137.00;;;15.80
13570;BMP180;6856;51.460;7.158;2022-11-03T05:33:30;100098.00;;;15.80
13570;BMP180;6856;51.460;7.158;2022-11-03T05:36:13;100122.00;;;15.80
13570;BMP180;6856;51.460;7.158;2022-11-03T05:38:48;100125.00;;;15.90
13570;BMP180;6856;51.460;7.158;2022-11-03T05:41:25;100121.00;;;15.80
13570;BMP180;6856;51.460;7.158;2022-11-03T05:44:02;100117.00;;;15.90
13570;BMP180;6856;51.460;7.158;2022-11-03T05:46:41;100121.00;;;15.90
13570;BMP180;6856;51.460;7.158;2022-11-03T05:49:15;100100.00;;;15.90
13570;BMP180;6856;51.460;7.158;2022-11-03T05:51:48;100080.00;;;15.90
13570;BMP180;6856;51.460;7.158;2022-11-03T05:54:28;100109.00;;;15.90
13570;BMP180;6856;51.460;7.158;2022-11-03T05:57:09;100106.00;;;15.90
13570;BMP180;6856;51.460;7.158;2022-11-03T05:59:46;100105.00;;;15.90
13570;BMP180;6856;51.460;7.158;2022-11-03T06:02:35;100106.00;;;16.00
13570;BMP180;6856;51.460;7.158;2022-11-03T06:05:17;100093.00;;;16.00
13570;BMP180;6856;51.460;7.158;2022-11-03T06:07:54;100099.00;;;16.00
13570;BMP180;6856;51.460;7.158;2022-11-03T06:10:34;100087.00;;;16.00
13570;BMP180;6856;51.460;7.158;2022-11-03T06:13:15;100094.00;;;16.00
13570;BMP180;6856;51.460;7.158;2022-11-03T06:15:55;100089.00;;;16.00
13570;BMP180;6856;51.460;7.158;2022-11-03T06:18:34;100080.00;;;16.10
13570;BMP180;6856;51.460;7.158;2022-11-03T06:21:13;100090.00;;;16.10
13570;BMP180;6856;51.460;7.158;2022-11-03T06:23:48;100091.00;;;16.10
13570;BMP180;6856;51.460;7.158;2022-11-03T06:26:26;100075.00;;;16.00
13570;BMP180;6856;51.460;7.158;2022-11-03T06:29:00;100064.00;;;16.10
13570;BMP180;6856;51.460;7.158;2022-11-03T06:31:34;100079.00;;;16.10
13570;BMP180;6856;51.460;7.158;2022-11-03T06:34:26;100055.00;;;16.00
13570;BMP180;6856;51.460;7.158;2022-11-03T06:37:17;100060.00;;;16.10
13570;BMP180;6856;51.460;7.158;2022-11-03T06:39:59;100060.00;;;16.00
13570;BMP180;6856;51.460;7.158;2022-11-03T06:42:37;100064.00;;;16.00
13570;BMP180;6856;51.460;7.158;2022-11-03T06:45:17;100069.00;;;16.00
13570;BMP180;6856;51.460;7.158;2022-11-03T06:47:53;100022.00;;;16.10
13570;BMP180;6856;51.460;7.158;2022-11-03T06:50:31;100057.00;;;16.10
13570;BMP180;6856;51.460;7.158;2022-11-03T06:53:04;100054.00;;;16.10
13570;BMP180;6856;51.460;7.158;2022-11-03T06:55:39;100039.00;;;16.10
13570;BMP180;6856;51.460;7.158;2022-11-03T06:58:23;100036.00;;;16.10
13570;BMP180;6856;51.460;7.158;2022-11-03T07:01:02;100028.00;;;16.10
13570;BMP180;6856;51.460;7.158;2022-11-03T07:03:36;100025.00;;;16.10
13570;BMP180;6856;51.460;7.158;2022-11-03T07:06:19;100038.00;;;16.10
13570;BMP180;6856;51.460;7.158;2022-11-03T07:08:58;100051.00;;;16.10
13570;BMP180;6856;51.460;7.158;2022-11-03T07:11:40;100020.00;;;16.10
13570;BMP180;6856;51.460;7.158;2022-11-03T07:14:18;100040.00;;;16.10
13570;BMP180;6856;51.460;7.158;2022-11-03T07:16:55;100022.00;;;16.10
13570;BMP180;6856;51.460;7.158;2022-11-03T07:19:34;100023.00;;;16.20
13570;BMP180;6856;51.460;7.158;2022-11-03T07:22:17;100005.00;;;16.20
13570;BMP180;6856;51.460;7.158;2022-11-03T07:24:54;100012.00;;;16.20
13570;BMP180;6856;51.460;7.158;2022-11-03T07:27:30;100007.00;;;16.20
13570;BMP180;6856;51.460;7.158;2022-11-03T07:30:18;100010.00;;;16.20
13570;BMP180;6856;51.460;7.158;2022-11-03T07:32:53;100004.00;;;16.20
13570;BMP180;6856;51.460;7.158;2022-11-03T07:35:33;100004.00;;;16.20
13570;BMP180;6856;51.460;7.158;2022-11-03T07:38:29;100010.00;;;16.30
13570;BMP180;6856;51.460;7.158;2022-11-03T07:41:05;100007.00;;;16.30
13570;BMP180;6856;51.460;7.158;2022-11-03T07:43:42;100005.00;;;16.30
13570;BMP180;6856;51.460;7.158;2022-11-03T07:46:23;99973.00;;;16.30
13570;BMP180;6856;51.460;7.158;2022-11-03T07:48:58;99995.00;;;16.30
13570;BMP180;6856;51.460;7.158;2022-11-03T07:51:37;100001.00;;;16.30
13570;BMP180;6856;51.460;7.158;2022-11-03T07:54:18;99975.00;;;16.30
13570;BMP180;6856;51.460;7.158;2022-11-03T07:56:57;99972.00;;;16.40
13570;BMP180;6856;51.460;7.158;2022-11-03T07:59:36;99969.00;;;16.40
13570;BMP180;6856;51.460;7.158;2022-11-03T08:02:29;99966.00;;;16.50
13570;BMP180;6856;51.460;7.158;2022-11-03T08:05:05;99978.00;;;16.50
13570;BMP180;6856;51.460;7.158;2022-11-03T08:07:38;99968.00;;;16.50
13570;BMP180;6856;51.460;7.158;2022-11-03T08:10:11;99967.00;;;16.60
13570;BMP180;6856;51.460;7.158;2022-11-03T08:12:46;99967.00;;;16.60
13570;BMP180;6856;51.460;7.158;2022-11-03T08:15:19;99966.00;;;16.70
13570;BMP180;6856;51.460;7.158;2022-11-03T08:17:54;99962.00;;;16.70
13570;BMP180;6856;51.460;7.158;2022-11-03T08:20:28;99939.00;;;16.70
13570;BMP180;6856;51.460;7.158;2022-11-03T08:23:01;99949.00;;;16.80
13570;BMP180;6856;51.460;7.158;2022-11-03T08:25:54;99964.00;;;16.80
13570;BMP180;6856;51.460;7.158;2022-11-03T08:28:29;99943.00;;;16.90
13570;BMP180;6856;51.460;7.158;2022-11-03T08:31:02;99945.00;;;16.90
13570;BMP180;6856;51.460;7.158;2022-11-03T08:33:45;99943.00;;;16.90
13570;BMP180;6856;51.460;7.158;2022-11-03T08:36:18;99938.00;;;17.00
13570;BMP180;6856;51.460;7.158;2022-11-03T08:38:52;99938.00;;;17.00
13570;BMP180;6856;51.460;7.158;2022-11-03T08:41:26;99936.00;;;17.00
13570;BMP180;6856;51.460;7.158;2022-11-03T08:43:59;99929.00;;;17.10
13570;BMP180;6856;51.460;7.158;2022-11-03T08:46:33;99921.00;;;17.10
13570;BMP180;6856;51.460;7.158;2022-11-03T08:49:08;99908.00;;;17.10
13570;BMP180;6856;51.460;7.158;2022-11-03T08:51:41;99910.00;;;17.10
13570;BMP180;6856;51.460;7.158;2022-11-03T08:54:16;99928.00;;;17.20
13570;BMP180;6856;51.460;7.158;2022-11-03T08:56:50;99931.00;;;17.20
13570;BMP180;6856;51.460;7.158;2022-11-03T08:59:23;99928.00;;;17.30
13570;BMP180;6856;51.460;7.158;2022-11-03T09:01:57;99911.00;;;17.30
13570;BMP180;6856;51.460;7.158;2022-11-03T09:04:32;99914.00;;;17.30
13570;BMP180;6856;51.460;7.158;2022-11-03T09:07:05;99908.00;;;17.30
13570;BMP180;6856;51.460;7.158;2022-11-03T09:09:39;99891.00;;;17.40
13570;BMP180;6856;51.460;7.158;2022-11-03T09:12:32;99900.00;;;17.40
13570;BMP180;6856;51.460;7.158;2022-11-03T09:15:07;99890.00;;;17.50
13570;BMP180;6856;51.460;7.158;2022-11-03T09:17:40;99881.00;;;17.50
13570;BMP180;6856;51.460;7.158;2022-11-03T09:20:18;99873.00;;;17.50
13570;BMP180;6856;51.460;7.158;2022-11-03T09:22:52;99866.00;;;17.60
13570;BMP180;6856;51.460;7.158;2022-11-03T09:25:26;99850.00;;;17.60
13570;BMP180;6856;51.460;7.158;2022-11-03T09:27:59;99858.00;;;17.70
13570;BMP180;6856;51.460;7.158;2022-11-03T09:30:33;99834.00;;;17.70
13570;BMP180;6856;51.460;7.158;2022-11-03T09:33:06;99845.00;;;17.70
13570;BMP180;6856;51.460;7.158;2022-11-03T09:35:41;99823.00;;;17.80
13570;BMP180;6856;51.460;7.158;2022-11-03T09:38:14;99838.00;;;17.80
13570;BMP180;6856;51.460;7.158;2022-11-03T09:40:48;99829.00;;;17.90
13570;BMP180;6856;51.460;7.158;2022-11-03T09:43:21;99827.00;;;17.90
13570;BMP180;6856;51.460;7.158;2022-11-03T09:45:55;99806.00;;;17.90
13570;BMP180;6856;51.460;7.158;2022-11-03T09:48:28;99797.00;;;18.00
13570;BMP180;6856;51.460;7.158;2022-11-03T09:51:04;99800.00;;;18.00
13570;BMP180;6856;51.460;7.158;2022-11-03T09:53:38;99792.00;;;18.00
13570;BMP180;6856;51.460;7.158;2022-11-03T09:56:12;99802.00;;;18.10
13570;BMP180;6856;51.460;7.158;2022-11-03T09:58:46;99789.00;;;18.10
13570;BMP180;6856;51.460;7.158;2022-11-03T10:01:25;99783.00;;;18.20
13570;BMP180;6856;51.460;7.158;2022-11-03T10:04:00;99785.00;;;18.30
13570;BMP180;6856;51.460;7.158;2022-11-03T10:06:36;99787.00;;;18.20
13570;BMP180;6856;51.460;7.158;2022-11-03T10:09:16;99778.00;;;18.30
13570;BMP180;6856;51.460;7.158;2022-11-03T10:11:53;99778.00;;;18.30
13570;BMP180;6856;51.460;7.158;2022-11-03T10:14:28;99774.00;;;18.40
13570;BMP180;6856;51.460;7.158;2022-11-03T10:17:01;99774.00;;;18.40
13570;BMP180;6856;51.460;7.158;2022-11-03T10:19:35;99759.00;;;18.40
13570;BMP180;6856;51.460;7.158;2022-11-03T10:22:10;99753.00;;;18.50
13570;BMP180;6856;51.460;7.158;2022-11-03T10:24:44;99730.00;;;18.50
13570;BMP180;6856;51.460;7.158;2022-11-03T10:27:22;99707.00;;;18.50
13570;BMP180;6856;51.460;7.158;2022-11-03T10:30:08;99693.00;;;18.50
13570;BMP180;6856;51.460;7.158;2022-11-03T10:32:42;99706.00;;;18.60
13570;BMP180;6856;51.460;7.158;2022-11-03T10:35:36;99676.00;;;18.60
13570;BMP180;6856;51.460;7.158;2022-11-03T10:38:28;99683.00;;;18.60
13570;BMP180;6856;51.460;7.158;2022-11-03T10:41:13;99692.00;;;18.60
13570;BMP180;6856;51.460;7.158;2022-11-03T10:44:04;99682.00;;;18.60
13570;BMP180;6856;51.460;7.158;2022-11-03T10:46:40;99667.00;;;18.70
13570;BMP180;6856;51.460;7.158;2022-11-03T10:49:29;99694.00;;;18.70
13570;BMP180;6856;51.460;7.158;2022-11-03T10:52:17;99688.00;;;18.70
13570;BMP180;6856;51.460;7.158;2022-11-03T10:54:55;99681.00;;;18.80
13570;BMP180;6856;51.460;7.158;2022-11-03T10:57:31;99671.00;;;18.80
13570;BMP180;6856;51.460;7.158;2022-11-03T11:00:06;99672.00;;;18.80
13570;BMP180;6856;51.460;7.158;2022-11-03T11:02:45;99680.00;;;18.80
13570;BMP180;6856;51.460;7.158;2022-11-03T11:05:21;99653.00;;;18.90
13570;BMP180;6856;51.460;7.158;2022-11-03T11:07:57;99634.00;;;18.90
13570;BMP180;6856;51.460;7.158;2022-11-03T11:10:33;99616.00;;;18.90
13570;BMP180;6856;51.460;7.158;2022-11-03T11:13:26;99614.00;;;18.90
13570;BMP180;6856;51.460;7.158;2022-11-03T11:16:01;99587.00;;;18.90
13570;BMP180;6856;51.460;7.158;2022-11-03T11:19:10;99624.00;;;19.00
13570;BMP180;6856;51.460;7.158;2022-11-03T11:22:00;99595.00;;;19.00
13570;BMP180;6856;51.460;7.158;2022-11-03T11:25:02;99610.00;;;19.00
13570;BMP180;6856;51.460;7.158;2022-11-03T11:27:56;99610.00;;;19.00
13570;BMP180;6856;51.460;7.158;2022-11-03T11:31:28;99587.00;;;19.10
13570;BMP180;6856;51.460;7.158;2022-11-03T11:34:38;99574.00;;;19.20
13570;BMP180;6856;51.460;7.158;2022-11-03T11:37:39;99582.00;;;19.40
13570;BMP180;6856;51.460;7.158;2022-11-03T11:40:47;99580.00;;;19.40
13570;BMP180;6856;51.460;7.158;2022-11-03T11:43:27;99580.00;;;19.60
13570;BMP180;6856;51.460;7.158;2022-11-03T11:46:39;99590.00;;;19.60
13570;BMP180;6856;51.460;7.158;2022-11-03T11:49:16;99585.00;;;19.70
13570;BMP180;6856;51.460;7.158;2022-11-03T11:51:51;99581.00;;;19.80
13570;BMP180;6856;51.460;7.158;2022-11-03T11:54:24;99569.00;;;19.80
13570;BMP180;6856;51.460;7.158;2022-11-03T11:56:57;99551.00;;;19.90
13570;BMP180;6856;51.460;7.158;2022-11-03T11:59:33;99567.00;;;20.00
13570;BMP180;6856;51.460;7.158;2022-11-03T12:02:17;99557.00;;;20.00
13570;BMP180;6856;51.460;7.158;2022-11-03T12:04:57;99542.00;;;20.10
13570;BMP180;6856;51.460;7.158;2022-11-03T12:07:32;99526.00;;;20.10
13570;BMP180;6856;51.460;7.158;2022-11-03T12:10:07;99542.00;;;20.10
13570;BMP180;6856;51.460;7.158;2022-11-03T12:12:41;99562.00;;;20.10
13570;BMP180;6856;51.460;7.158;2022-11-03T12:15:53;99525.00;;;20.10
13570;BMP180;6856;51.460;7.158;2022-11-03T12:18:32;99521.00;;;20.00
13570;BMP180;6856;51.460;7.158;2022-11-03T12:21:13;99478.00;;;20.00
13570;BMP180;6856;51.460;7.158;2022-11-03T12:24:25;99496.00;;;20.00
13570;BMP180;6856;51.460;7.158;2022-11-03T12:27:00;99483.00;;;20.00
13570;BMP180;6856;51.460;7.158;2022-11-03T12:29:33;99472.00;;;20.00
13570;BMP180;6856;51.460;7.158;2022-11-03T12:32:08;99475.00;;;20.00
13570;BMP180;6856;51.460;7.158;2022-11-03T12:35:03;99481.00;;;20.00
13570;BMP180;6856;51.460;7.158;2022-11-03T12:37:36;99474.00;;;19.90
13570;BMP180;6856;51.460;7.158;2022-11-03T12:40:12;99471.00;;;19.90
13570;BMP180;6856;51.460;7.158;2022-11-03T12:42:45;99442.00;;;19.90
13570;BMP180;6856;51.460;7.158;2022-11-03T12:45:19;99451.00;;;19.90
13570;BMP180;6856;51.460;7.158;2022-11-03T12:47:55;99424.00;;;19.90
13570;BMP180;6856;51.460;7.158;2022-11-03T12:50:28;99428.00;;;19.90
13570;BMP180;6856;51.460;7.158;2022-11-03T12:53:01;99417.00;;;19.90
13570;BMP180;6856;51.460;7.158;2022-11-03T12:55:35;99420.00;;;20.00
13570;BMP180;6856;51.460;7.158;2022-11-03T12:58:15;99417.00;;;20.00
13570;BMP180;6856;51.460;7.158;2022-11-03T13:00:49;99404.00;;;20.00
13570;BMP180;6856;51.460;7.158;2022-11-03T13:03:28;99389.00;;;19.90
13570;BMP180;6856;51.460;7.158;2022-11-03T13:06:05;99403.00;;;20.00
13570;BMP180;6856;51.460;7.158;2022-11-03T13:08:41;99393.00;;;19.90
13570;BMP180;6856;51.460;7.158;2022-11-03T13:11:18;99386.00;;;19.90
13570;BMP180;6856;51.460;7.158;2022-11-03T13:14:11;99372.00;;;19.90
13570;BMP180;6856;51.460;7.158;2022-11-03T13:16:45;99364.00;;;19.90
13570;BMP180;6856;51.460;7.158;2022-11-03T13:19:19;99338.00;;;19.90
13570;BMP180;6856;51.460;7.158;2022-11-03T13:21:53;99355.00;;;19.90
13570;BMP180;6856;51.460;7.158;2022-11-03T13:24:26;99356.00;;;19.90
13570;BMP180;6856;51.460;7.158;2022-11-03T13:26:59;99349.00;;;19.80
13570;BMP180;6856;51.460;7.158;2022-11-03T13:29:33;99342.00;;;19.80
13570;BMP180;6856;51.460;7.158;2022-11-03T13:32:07;99344.00;;;19.80
13570;BMP180;6856;51.460;7.158;2022-11-03T13:34:42;99345.00;;;19.80
13570;BMP180;6856;51.460;7.158;2022-11-03T13:37:15;99326.00;;;19.60
13570;BMP180;6856;51.460;7.158;2022-11-03T13:39:49;99332.00;;;19.70
13570;BMP180;6856;51.460;7.158;2022-11-03T13:42:22;99323.00;;;19.70
13570;BMP180;6856;51.460;7.158;2022-11-03T13:44:55;99316.00;;;19.70
13570;BMP180;6856;51.460;7.158;2022-11-03T13:47:29;99312.00;;;19.60
13570;BMP180;6856;51.460;7.158;2022-11-03T13:50:34;99298.00;;;19.60
13570;BMP180;6856;51.460;7.158;2022-11-03T13:53:08;99283.00;;;19.50
13570;BMP180;6856;51.460;7.158;2022-11-03T13:56:01;99282.00;;;19.50
13570;BMP180;6856;51.460;7.158;2022-11-03T13:58:39;99285.00;;;19.50
13570;BMP180;6856;51.460;7.158;2022-11-03T14:01:33;99276.00;;;19.50
13570;BMP180;6856;51.460;7.158;2022-11-03T14:04:08;99264.00;;;19.40
13570;BMP180;6856;51.460;7.158;2022-11-03T14:07:02;99268.00;;;19.40
13570;BMP180;6856;51.460;7.158;2022-11-03T14:09:36;99256.00;;;19.40
13570;BMP180;6856;51.460;7.158;2022-11-03T14:12:10;99237.00;;;19.40
13570;BMP180;6856;51.460;7.158;2022-11-03T14:15:04;99213.00;;;19.30
13570;BMP180;6856;51.460;7.158;2022-11-03T14:17:38;99214.00;;;19.40
13570;BMP180;6856;51.460;7.158;2022-11-03T14:20:12;99216.00;;;19.30
13570;BMP180;6856;51.460;7.158;2022-11-03T14:22:47;99217.00;;;19.30
13570;BMP180;6856;51.460;7.158;2022-11-03T14:25:20;99208.00;;;19.30
13570;BMP180;6856;51.460;7.158;2022-11-03T14:27:54;99203.00;;;19.30
13570;BMP180;6856;51.460;7.158;2022-11-03T14:30:28;99201.00;;;19.30
13570;BMP180;6856;51.460;7.158;2022-11-03T14:33:01;99192.00;;;19.20
13570;BMP180;6856;51.460;7.158;2022-11-03T14:35:35;99202.00;;;19.20
13570;BMP180;6856;51.460;7.158;2022-11-03T14:38:10;99203.00;;;19.20
13570;BMP180;6856;51.460;7.158;2022-11-03T14:40:43;99195.00;;;19.20
13570;BMP180;6856;51.460;7.158;2022-11-03T14:43:34;99187.00;;;19.20
13570;BMP180;6856;51.460;7.158;2022-11-03T14:46:07;99182.00;;;19.10
13570;BMP180;6856;51.460;7.158;2022-11-03T14:48:41;99183.00;;;19.10
13570;BMP180;6856;51.460;7.158;2022-11-03T14:51:14;99163.00;;;19.10
13570;BMP180;6856;51.460;7.158;2022-11-03T14:53:49;99186.00;;;19.00
13570;BMP180;6856;51.460;7.158;2022-11-03T14:56:23;99168.00;;;19.00
13570;BMP180;6856;51.460;7.158;2022-11-03T14:58:56;99165.00;;;18.90
13570;BMP180;6856;51.460;7.158;2022-11-03T15:01:30;99163.00;;;19.00
13570;BMP180;6856;51.460;7.158;2022-11-03T15:04:05;99165.00;;;18.90
13570;BMP180;6856;51.460;7.158;2022-11-03T15:06:39;99152.00;;;18.90
13570;BMP180;6856;51.460;7.158;2022-11-03T15:09:14;99174.00;;;18.80
13570;BMP180;6856;51.460;7.158;2022-11-03T15:11:48;99166.00;;;18.80
13570;BMP180;6856;51.460;7.158;2022-11-03T15:14:21;99176.00;;;18.80
13570;BMP180;6856;51.460;7.158;2022-11-03T15:16:55;99168.00;;;18.70
13570;BMP180;6856;51.460;7.158;2022-11-03T15:19:28;99166.00;;;18.70